createdAt,value
2023-08-05T00:05:33.063Z,0.00
2023-08-05T00:10:23.467Z,0.00
2023-08-05T00:15:26.864Z,0.00
2023-08-05T00:20:33.641Z,0.00
2023-08-05T00:25:21.838Z,0.00
2023-08-05T00:30:28.001Z,0.00
2023-08-05T00:35:33.498Z,0.00
2023-08-05T00:40:29.376Z,0.00
2023-08-05T00:45:28.608Z,0.00
2023-08-05T00:50:17.577Z,0.00
2023-08-05T00:55:24.147Z,0.00
2023-08-05T01:00:32.832Z,0.00
2023-08-05T01:05:19.494Z,0.00
2023-08-05T01:10:25.014Z,0.00
2023-08-05T01:15:31.292Z,0.00
2023-08-05T01:20:22.045Z,0.00
2023-08-05T01:25:26.254Z,0.00
2023-08-05T01:30:32.273Z,0.00
2023-08-05T01:35:20.482Z,0.00
2023-08-05T01:40:28.277Z,0.00
2023-08-05T01:45:34.282Z,0.00
2023-08-05T01:50:21.631Z,0.00
2023-08-05T01:55:27.751Z,0.00
2023-08-05T02:00:39.118Z,0.00
2023-08-05T02:05:22.568Z,0.00
2023-08-05T02:15:16.943Z,0.00
2023-08-05T02:20:25.018Z,0.00
2023-08-05T02:25:29.235Z,0.00
2023-08-05T02:30:18.327Z,0.00
2023-08-05T02:35:23.977Z,0.00
2023-08-05T02:40:30.616Z,0.00
2023-08-05T02:45:19.252Z,0.00
2023-08-05T02:50:25.628Z,0.00
2023-08-05T02:55:31.445Z,0.00
2023-08-05T03:00:21.728Z,0.00
2023-08-05T03:05:27.295Z,0.00
2023-08-05T03:10:32.646Z,0.00
2023-08-05T03:15:21.708Z,0.00
2023-08-05T03:20:29.463Z,0.00
2023-08-05T03:25:33.899Z,0.00
2023-08-05T03:30:22.857Z,0.00
2023-08-05T03:35:28.905Z,0.00
2023-08-05T03:40:19.364Z,0.00
2023-08-05T03:45:24.032Z,0.00
2023-08-05T03:50:30.041Z,0.11
2023-08-05T03:55:23.638Z,0.77
2023-08-05T04:00:30.224Z,1.54
2023-08-05T04:05:32.421Z,3.03
2023-08-05T04:10:19.642Z,5.29
2023-08-05T04:15:25.608Z,7.85
2023-08-05T04:20:32.537Z,11.35
2023-08-05T04:25:20.966Z,14.29
2023-08-05T04:30:26.944Z,18.47
2023-08-05T04:35:32.396Z,23.20
2023-08-05T04:40:22.439Z,25.78
2023-08-05T04:45:27.617Z,30.69
2023-08-05T04:50:33.631Z,35.98
2023-08-05T04:55:22.669Z,44.33
2023-08-05T05:00:31.412Z,47.32
2023-08-05T05:05:18.598Z,43.94
2023-08-05T05:10:24.084Z,38.04
2023-08-05T05:15:30.032Z,39.05
2023-08-05T05:20:21.400Z,45.66
2023-08-05T05:25:25.168Z,57.76
2023-08-05T05:30:31.365Z,75.10
2023-08-05T05:35:20.006Z,91.79
2023-08-05T05:40:26.688Z,97.44
2023-08-05T05:45:31.795Z,101.60
2023-08-05T05:50:20.988Z,101.25
2023-08-05T05:55:26.984Z,97.30
2023-08-05T06:00:36.479Z,100.80
2023-08-05T06:05:24.126Z,126.46
2023-08-05T06:10:27.262Z,139.82
2023-08-05T06:15:33.413Z,146.71
2023-08-05T06:20:23.369Z,153.02
2023-08-05T06:25:28.609Z,162.65
2023-08-05T06:30:17.926Z,180.10
2023-08-05T06:35:23.515Z,188.36
2023-08-05T06:40:30.026Z,162.91
2023-08-05T06:45:18.566Z,153.54
2023-08-05T06:50:24.650Z,182.34
2023-08-05T06:55:30.708Z,219.22
2023-08-05T07:00:20.699Z,222.85
2023-08-05T07:05:26.408Z,233.22
2023-08-05T07:10:33.770Z,236.92
2023-08-05T07:15:20.889Z,229.82
2023-08-05T07:20:27.781Z,253.05
2023-08-05T07:25:33.168Z,277.84
2023-08-05T07:30:22.160Z,305.96
2023-08-05T07:35:27.828Z,287.22
2023-08-05T07:40:34.696Z,235.79
2023-08-05T07:45:22.791Z,242.57
2023-08-05T07:50:28.754Z,268.50
2023-08-05T07:55:17.855Z,291.36
2023-08-05T08:00:26.470Z,296.73
2023-08-05T08:05:29.919Z,309.92
2023-08-05T08:10:18.318Z,335.11
2023-08-05T08:15:26.878Z,317.50
2023-08-05T08:20:31.636Z,411.31
2023-08-05T08:25:19.618Z,430.17
2023-08-05T08:30:25.520Z,342.58
2023-08-05T08:35:31.181Z,371.02
2023-08-05T08:40:20.812Z,361.99
2023-08-05T08:45:26.265Z,325.12
2023-08-05T08:55:20.978Z,372.13
2023-08-05T09:00:28.253Z,354.94
2023-08-05T09:05:33.734Z,343.81
2023-08-05T09:10:22.423Z,330.45
2023-08-05T09:15:28.640Z,315.16
2023-08-05T09:20:24.847Z,316.97
2023-08-05T09:25:23.404Z,326.42
2023-08-05T09:30:29.816Z,340.30
2023-08-05T09:35:18.413Z,328.85
2023-08-05T09:40:26.534Z,300.40
2023-08-05T09:45:30.689Z,264.91
2023-08-05T09:50:19.854Z,198.77
2023-08-05T09:55:25.719Z,165.00
2023-08-05T10:00:38.873Z,181.80
2023-08-05T10:05:22.172Z,202.52
2023-08-05T10:10:27.877Z,223.88
2023-08-05T10:15:36.187Z,274.13
2023-08-05T10:20:39.468Z,324.56
2023-08-05T10:25:29.170Z,354.96
2023-08-05T10:30:33.484Z,420.67
2023-08-05T10:35:22.807Z,458.46
2023-08-05T10:40:29.685Z,486.83
2023-08-05T10:45:17.930Z,391.66
2023-08-05T10:50:23.920Z,416.79
2023-08-05T10:55:29.948Z,360.84
2023-08-05T11:00:20.158Z,328.27
2023-08-05T11:05:25.006Z,417.90
2023-08-05T11:10:30.581Z,279.73
2023-08-05T11:15:19.295Z,166.19
2023-08-05T11:20:27.470Z,169.91
2023-08-05T11:25:31.563Z,177.20
2023-08-05T11:30:20.785Z,149.93
2023-08-05T11:35:26.900Z,107.05
2023-08-05T11:40:33.529Z,111.90
2023-08-05T11:45:21.783Z,96.95
2023-08-05T11:50:27.958Z,58.51
2023-08-05T11:55:33.959Z,50.13
2023-08-05T12:00:28.175Z,45.38
2023-08-05T12:05:29.470Z,43.75
2023-08-05T12:10:19.240Z,49.48
2023-08-05T12:15:24.942Z,46.79
2023-08-05T12:20:30.002Z,49.06
2023-08-05T12:25:18.400Z,56.51
2023-08-05T12:30:28.270Z,61.79
2023-08-05T12:35:29.944Z,63.47
2023-08-05T12:40:21.770Z,62.15
2023-08-05T12:45:25.456Z,63.81
2023-08-05T12:50:31.129Z,66.05
2023-08-05T12:55:20.284Z,69.45
2023-08-05T13:00:29.842Z,74.92
2023-08-05T13:05:32.979Z,85.08
2023-08-05T13:10:21.704Z,93.82
2023-08-05T13:15:27.586Z,103.56
2023-08-05T13:20:34.196Z,112.84
2023-08-05T13:25:23.184Z,115.65
2023-08-05T13:30:28.801Z,117.59
2023-08-05T13:35:21.006Z,119.68
2023-08-05T13:40:23.752Z,127.90
2023-08-05T13:45:29.528Z,115.54
2023-08-05T13:50:18.337Z,118.20
2023-08-05T13:55:24.671Z,123.32
2023-08-05T14:00:32.121Z,120.02
2023-08-05T14:05:20.252Z,123.92
2023-08-05T14:10:25.787Z,129.46
2023-08-05T14:15:31.782Z,135.74
2023-08-05T14:20:23.147Z,156.84
2023-08-05T14:25:26.810Z,170.79
2023-08-05T14:30:33.292Z,175.84
2023-08-05T14:35:21.140Z,189.39
2023-08-05T14:40:31.142Z,202.25
2023-08-05T14:45:33.399Z,208.82
2023-08-05T14:50:22.542Z,205.64
2023-08-05T14:55:28.490Z,201.90
2023-08-05T15:00:19.681Z,203.35
2023-08-05T15:05:24.242Z,188.68
2023-08-05T15:10:29.978Z,191.92
2023-08-05T15:15:18.827Z,135.77
2023-08-05T15:20:27.488Z,87.89
2023-08-05T15:25:31.147Z,71.58
2023-08-05T15:30:19.908Z,62.08
2023-08-05T15:35:25.658Z,39.87
2023-08-05T15:40:32.152Z,26.62
2023-08-05T15:45:22.203Z,20.88
2023-08-05T15:50:26.695Z,15.90
2023-08-05T15:55:32.734Z,11.20
2023-08-05T16:00:24.164Z,10.59
2023-08-05T16:05:28.188Z,8.83
2023-08-05T16:10:33.215Z,7.66
2023-08-05T16:15:22.182Z,15.36
2023-08-05T16:20:29.070Z,39.17
2023-08-05T16:25:17.289Z,64.15
2023-08-05T16:30:23.426Z,67.08
2023-08-05T16:35:29.753Z,58.90
2023-08-05T16:40:20.133Z,66.18
2023-08-05T16:45:24.513Z,59.11
2023-08-05T16:50:31.025Z,60.17
2023-08-05T16:55:19.946Z,63.68
2023-08-05T17:00:27.500Z,65.07
2023-08-05T17:05:31.674Z,56.81
2023-08-05T17:10:20.016Z,55.49
2023-08-05T17:15:26.068Z,57.63
2023-08-05T17:20:32.464Z,56.55
2023-08-05T17:25:22.753Z,54.84
2023-08-05T17:30:27.306Z,51.49
2023-08-05T17:40:23.258Z,43.18
2023-08-05T17:45:28.958Z,33.14
2023-08-05T17:50:18.108Z,21.44
2023-08-05T17:55:29.058Z,18.42
2023-08-05T18:00:33.660Z,15.02
2023-08-05T18:05:19.915Z,12.76
2023-08-05T18:10:24.303Z,12.02
2023-08-05T18:15:30.299Z,10.77
2023-08-05T18:20:21.617Z,8.55
2023-08-05T18:25:25.490Z,7.24
2023-08-05T18:35:20.266Z,5.42
2023-08-05T18:40:26.579Z,3.56
2023-08-05T18:45:32.233Z,0.99
2023-08-05T18:50:21.212Z,0.07
2023-08-05T18:55:27.327Z,0.00
2023-08-05T19:00:34.744Z,0.00
2023-08-05T19:05:23.201Z,0.00
2023-08-05T19:10:28.680Z,0.00
2023-08-05T19:15:17.659Z,0.00
2023-08-05T19:20:24.648Z,0.00
2023-08-05T19:25:29.817Z,0.00
2023-08-05T19:30:18.882Z,0.00
2023-08-05T19:35:24.577Z,0.00
2023-08-05T19:40:31.217Z,0.00
2023-08-05T19:45:19.642Z,0.00
2023-08-05T19:50:25.825Z,0.00
2023-08-05T19:55:31.856Z,0.00
2023-08-05T20:00:22.549Z,0.00
2023-08-05T20:05:32.989Z,0.00
2023-08-05T20:10:32.041Z,0.00
2023-08-05T20:15:21.252Z,0.00
2023-08-05T20:20:27.798Z,0.00
2023-08-05T20:25:33.081Z,0.00
2023-08-05T20:30:22.227Z,0.00
2023-08-05T20:35:28.149Z,0.00
2023-08-05T20:40:17.643Z,0.00
2023-08-05T20:45:23.093Z,0.00
2023-08-05T20:50:29.097Z,0.00
2023-08-05T20:55:18.028Z,0.00
2023-08-05T21:00:25.359Z,0.00
2023-08-05T21:05:30.937Z,0.00
2023-08-05T21:10:20.598Z,0.00
2023-08-05T21:15:25.264Z,0.00
2023-08-05T21:20:31.751Z,0.00
2023-08-05T21:25:20.267Z,0.00
2023-08-05T21:30:26.548Z,0.00
2023-08-05T21:35:32.259Z,0.00
2023-08-05T21:40:22.246Z,0.00
2023-08-05T21:45:27.283Z,0.00
2023-08-05T21:50:33.432Z,0.00
2023-08-05T21:55:22.507Z,0.00
2023-08-05T22:00:35.641Z,0.00
2023-08-05T22:05:19.237Z,0.00
2023-08-05T22:10:27.291Z,0.00
2023-08-05T22:20:22.942Z,0.00
2023-08-05T22:25:27.359Z,0.00
2023-08-05T22:30:30.935Z,0.00
2023-08-05T22:35:19.325Z,0.00
2023-08-05T22:40:27.951Z,0.00
2023-08-05T22:45:31.571Z,0.00
2023-08-05T22:50:20.525Z,0.00
2023-08-05T22:55:26.673Z,0.00
2023-08-05T23:00:33.992Z,0.00
2023-08-05T23:05:22.388Z,0.00
2023-08-05T23:10:28.481Z,0.00
2023-08-05T23:15:34.265Z,0.00
2023-08-05T23:20:25.173Z,0.00
2023-08-05T23:25:29.066Z,0.00
2023-08-05T23:30:18.676Z,0.00
2023-08-05T23:35:23.516Z,0.00
2023-08-05T23:40:30.349Z,0.00
2023-08-05T23:45:18.563Z,0.00
2023-08-05T23:50:24.734Z,0.00
2023-08-05T23:55:30.814Z,0.00
